Terminal Aerodrome Forecast
Issued by NWS

Home | Current Version | Previous Version | Text Only | Print | Product List | Glossary On
Versions: 1 2 3 4 5 6 7 8 9 10 11 12
000
FTUS46 KSTO 021100
TAFSAC
TAF
KSAC 021120Z 0212/0312 VRB05KT P6SM SKC
     FM021800 34008KT P6SM SKC
     FM030000 VRB04KT P6SM SKC=

USA.gov is the U.S. government's official web portal to all federal, state and local government web resources and services.